Ivugivik, Canada
Current Conditions -  °F | °C
As of 2:00 AM on Friday 19 Dec 2014 (Local Time) from CYTE Reporting Station
Clear Clear  
Wind Chill: -21°   Ceiling: Unl
Heat Index: -8°   Visibility: 9mi
Dew Point: -15°   Wind: 6mph
Humidity: 71%   Direction: 270°W
Pressure: 30.1"   Gusts: NA
Location:  62.42°N, 77.9°W
Report Text: CYTE 190600Z AUTO 27005KT 9SM CLR M22/M26 A3010 RMK SLP198
Loading
Personal Weather Stations






























Interactive Weather Map New forecast layout! Learn more

10-Day Weather Forecast

Advertisements
Track Severe Weather on mobile